sensor_id;sensor_type;location;lat;lon;timestamp;P1;durP1;ratioP1;P2;durP2;ratioP2
33826;SDS011;20128;45.582;5.298;2022-07-24T00:00:24;10.52;;;6.20;;
33826;SDS011;20128;45.582;5.298;2022-07-24T00:02:50;10.82;;;6.45;;
33826;SDS011;20128;45.582;5.298;2022-07-24T00:05:15;9.32;;;6.28;;
33826;SDS011;20128;45.582;5.298;2022-07-24T00:07:41;10.68;;;6.72;;
33826;SDS011;20128;45.582;5.298;2022-07-24T00:10:09;6.50;;;5.40;;
33826;SDS011;20128;45.582;5.298;2022-07-24T00:12:35;7.70;;;6.70;;
33826;SDS011;20128;45.582;5.298;2022-07-24T00:15:02;14.48;;;7.80;;
33826;SDS011;20128;45.582;5.298;2022-07-24T00:17:29;6.65;;;5.88;;
33826;SDS011;20128;45.582;5.298;2022-07-24T00:19:55;14.18;;;6.63;;
33826;SDS011;20128;45.582;5.298;2022-07-24T00:22:20;8.50;;;6.30;;
33826;SDS011;20128;45.582;5.298;2022-07-24T00:24:46;9.00;;;5.82;;
33826;SDS011;20128;45.582;5.298;2022-07-24T00:27:12;13.40;;;6.35;;
33826;SDS011;20128;45.582;5.298;2022-07-24T00:29:38;9.45;;;6.35;;
33826;SDS011;20128;45.582;5.298;2022-07-24T00:32:04;9.63;;;6.93;;
33826;SDS011;20128;45.582;5.298;2022-07-24T00:34:30;7.15;;;5.90;;
33826;SDS011;20128;45.582;5.298;2022-07-24T00:36:55;9.55;;;5.38;;
33826;SDS011;20128;45.582;5.298;2022-07-24T00:39:21;8.48;;;6.22;;
33826;SDS011;20128;45.582;5.298;2022-07-24T00:41:47;10.15;;;6.13;;
33826;SDS011;20128;45.582;5.298;2022-07-24T00:44:13;10.70;;;7.22;;
33826;SDS011;20128;45.582;5.298;2022-07-24T00:46:41;8.77;;;6.25;;
33826;SDS011;20128;45.582;5.298;2022-07-24T00:49:13;7.88;;;6.15;;
33826;SDS011;20128;45.582;5.298;2022-07-24T00:51:42;7.72;;;5.90;;
33826;SDS011;20128;45.582;5.298;2022-07-24T00:54:09;9.02;;;6.18;;
33826;SDS011;20128;45.582;5.298;2022-07-24T00:56:37;8.60;;;6.28;;
33826;SDS011;20128;45.582;5.298;2022-07-24T00:59:05;9.30;;;6.43;;
33826;SDS011;20128;45.582;5.298;2022-07-24T01:01:31;13.05;;;6.72;;
33826;SDS011;20128;45.582;5.298;2022-07-24T01:03:56;8.82;;;6.57;;
33826;SDS011;20128;45.582;5.298;2022-07-24T01:06:23;7.28;;;5.70;;
33826;SDS011;20128;45.582;5.298;2022-07-24T01:08:49;8.93;;;6.53;;
33826;SDS011;20128;45.582;5.298;2022-07-24T01:11:15;7.38;;;6.10;;
33826;SDS011;20128;45.582;5.298;2022-07-24T01:13:43;7.63;;;6.15;;
33826;SDS011;20128;45.582;5.298;2022-07-24T01:16:09;9.57;;;6.00;;
33826;SDS011;20128;45.582;5.298;2022-07-24T01:18:36;8.00;;;6.20;;
33826;SDS011;20128;45.582;5.298;2022-07-24T01:21:02;6.32;;;5.55;;
33826;SDS011;20128;45.582;5.298;2022-07-24T01:23:29;9.75;;;7.00;;
33826;SDS011;20128;45.582;5.298;2022-07-24T01:25:55;7.88;;;6.13;;
33826;SDS011;20128;45.582;5.298;2022-07-24T01:28:20;6.88;;;5.70;;
33826;SDS011;20128;45.582;5.298;2022-07-24T01:30:46;10.45;;;6.65;;
33826;SDS011;20128;45.582;5.298;2022-07-24T01:33:12;13.25;;;6.95;;
33826;SDS011;20128;45.582;5.298;2022-07-24T01:35:39;13.30;;;7.55;;
33826;SDS011;20128;45.582;5.298;2022-07-24T01:38:05;9.65;;;5.93;;
33826;SDS011;20128;45.582;5.298;2022-07-24T01:40:31;8.75;;;6.18;;
33826;SDS011;20128;45.582;5.298;2022-07-24T01:42:56;8.98;;;6.68;;
33826;SDS011;20128;45.582;5.298;2022-07-24T01:45:22;6.88;;;5.65;;
33826;SDS011;20128;45.582;5.298;2022-07-24T01:47:48;9.00;;;6.82;;
33826;SDS011;20128;45.582;5.298;2022-07-24T01:50:14;9.18;;;6.53;;
33826;SDS011;20128;45.582;5.298;2022-07-24T01:52:40;10.13;;;7.18;;
33826;SDS011;20128;45.582;5.298;2022-07-24T01:55:06;10.38;;;6.60;;
33826;SDS011;20128;45.582;5.298;2022-07-24T01:57:32;9.07;;;7.22;;
33826;SDS011;20128;45.582;5.298;2022-07-24T01:59:59;10.27;;;6.82;;
33826;SDS011;20128;45.582;5.298;2022-07-24T02:02:26;7.72;;;5.80;;
33826;SDS011;20128;45.582;5.298;2022-07-24T02:04:53;8.50;;;7.15;;
33826;SDS011;20128;45.582;5.298;2022-07-24T02:07:19;12.40;;;7.20;;
33826;SDS011;20128;45.582;5.298;2022-07-24T02:09:45;10.18;;;6.82;;
33826;SDS011;20128;45.582;5.298;2022-07-24T02:12:11;9.25;;;6.63;;
33826;SDS011;20128;45.582;5.298;2022-07-24T02:14:36;10.27;;;7.45;;
33826;SDS011;20128;45.582;5.298;2022-07-24T02:17:02;9.27;;;6.78;;
33826;SDS011;20128;45.582;5.298;2022-07-24T02:19:28;12.57;;;7.93;;
33826;SDS011;20128;45.582;5.298;2022-07-24T02:21:54;11.52;;;7.10;;
33826;SDS011;20128;45.582;5.298;2022-07-24T02:24:20;7.82;;;6.70;;
33826;SDS011;20128;45.582;5.298;2022-07-24T02:26:47;8.13;;;6.90;;
33826;SDS011;20128;45.582;5.298;2022-07-24T02:29:13;13.75;;;7.65;;
33826;SDS011;20128;45.582;5.298;2022-07-24T02:31:38;11.55;;;6.68;;
33826;SDS011;20128;45.582;5.298;2022-07-24T02:34:04;11.00;;;7.75;;
33826;SDS011;20128;45.582;5.298;2022-07-24T02:36:30;10.05;;;7.53;;
33826;SDS011;20128;45.582;5.298;2022-07-24T02:38:55;10.68;;;7.55;;
33826;SDS011;20128;45.582;5.298;2022-07-24T02:41:21;11.23;;;7.43;;
33826;SDS011;20128;45.582;5.298;2022-07-24T02:43:47;9.55;;;7.50;;
33826;SDS011;20128;45.582;5.298;2022-07-24T02:46:12;8.75;;;6.25;;
33826;SDS011;20128;45.582;5.298;2022-07-24T02:48:38;9.70;;;6.70;;
33826;SDS011;20128;45.582;5.298;2022-07-24T02:51:04;8.13;;;6.45;;
33826;SDS011;20128;45.582;5.298;2022-07-24T02:53:30;10.10;;;7.53;;
33826;SDS011;20128;45.582;5.298;2022-07-24T02:55:55;11.55;;;7.72;;
33826;SDS011;20128;45.582;5.298;2022-07-24T02:58:21;12.60;;;7.00;;
33826;SDS011;20128;45.582;5.298;2022-07-24T03:00:46;14.02;;;7.18;;
33826;SDS011;20128;45.582;5.298;2022-07-24T03:03:12;8.15;;;6.60;;
33826;SDS011;20128;45.582;5.298;2022-07-24T03:05:38;21.75;;;7.43;;
33826;SDS011;20128;45.582;5.298;2022-07-24T03:08:04;9.88;;;6.63;;
33826;SDS011;20128;45.582;5.298;2022-07-24T03:10:29;9.77;;;7.03;;
33826;SDS011;20128;45.582;5.298;2022-07-24T03:12:55;10.60;;;7.20;;
33826;SDS011;20128;45.582;5.298;2022-07-24T03:15:21;8.75;;;6.45;;
33826;SDS011;20128;45.582;5.298;2022-07-24T03:17:47;12.68;;;7.28;;
33826;SDS011;20128;45.582;5.298;2022-07-24T03:20:18;10.68;;;7.53;;
33826;SDS011;20128;45.582;5.298;2022-07-24T03:22:46;8.68;;;6.65;;
33826;SDS011;20128;45.582;5.298;2022-07-24T03:25:12;10.00;;;7.57;;
33826;SDS011;20128;45.582;5.298;2022-07-24T03:27:38;10.13;;;6.97;;
33826;SDS011;20128;45.582;5.298;2022-07-24T03:30:05;9.35;;;6.82;;
33826;SDS011;20128;45.582;5.298;2022-07-24T03:32:31;7.78;;;6.97;;
33826;SDS011;20128;45.582;5.298;2022-07-24T03:34:57;9.93;;;7.20;;
33826;SDS011;20128;45.582;5.298;2022-07-24T03:37:23;9.77;;;7.75;;
33826;SDS011;20128;45.582;5.298;2022-07-24T03:39:49;9.35;;;6.95;;
33826;SDS011;20128;45.582;5.298;2022-07-24T03:42:15;8.63;;;7.00;;
33826;SDS011;20128;45.582;5.298;2022-07-24T03:44:40;11.50;;;7.38;;
33826;SDS011;20128;45.582;5.298;2022-07-24T03:47:06;11.55;;;8.30;;
33826;SDS011;20128;45.582;5.298;2022-07-24T03:49:32;12.00;;;6.95;;
33826;SDS011;20128;45.582;5.298;2022-07-24T03:51:57;14.55;;;7.65;;
33826;SDS011;20128;45.582;5.298;2022-07-24T03:54:23;13.05;;;7.72;;
33826;SDS011;20128;45.582;5.298;2022-07-24T03:56:50;10.93;;;6.68;;
33826;SDS011;20128;45.582;5.298;2022-07-24T03:59:16;7.07;;;6.38;;
33826;SDS011;20128;45.582;5.298;2022-07-24T04:01:42;9.68;;;8.48;;
33826;SDS011;20128;45.582;5.298;2022-07-24T04:04:07;9.95;;;7.78;;
33826;SDS011;20128;45.582;5.298;2022-07-24T04:06:33;11.02;;;7.95;;
33826;SDS011;20128;45.582;5.298;2022-07-24T04:09:01;10.50;;;6.97;;
33826;SDS011;20128;45.582;5.298;2022-07-24T04:11:28;12.90;;;8.20;;
33826;SDS011;20128;45.582;5.298;2022-07-24T04:13:54;12.40;;;7.60;;
33826;SDS011;20128;45.582;5.298;2022-07-24T04:16:19;13.32;;;7.82;;
33826;SDS011;20128;45.582;5.298;2022-07-24T04:18:45;12.02;;;7.53;;
33826;SDS011;20128;45.582;5.298;2022-07-24T04:21:11;10.65;;;7.03;;
33826;SDS011;20128;45.582;5.298;2022-07-24T04:23:37;11.13;;;7.57;;
33826;SDS011;20128;45.582;5.298;2022-07-24T04:26:03;10.27;;;8.25;;
33826;SDS011;20128;45.582;5.298;2022-07-24T04:28:29;10.65;;;8.13;;
33826;SDS011;20128;45.582;5.298;2022-07-24T04:30:55;10.88;;;8.00;;
33826;SDS011;20128;45.582;5.298;2022-07-24T04:33:21;12.55;;;8.80;;
33826;SDS011;20128;45.582;5.298;2022-07-24T04:35:47;10.48;;;7.82;;
33826;SDS011;20128;45.582;5.298;2022-07-24T04:38:12;15.18;;;9.93;;
33826;SDS011;20128;45.582;5.298;2022-07-24T04:40:38;17.13;;;9.93;;
33826;SDS011;20128;45.582;5.298;2022-07-24T04:43:04;14.98;;;8.77;;
33826;SDS011;20128;45.582;5.298;2022-07-24T04:45:30;12.73;;;9.95;;
33826;SDS011;20128;45.582;5.298;2022-07-24T04:47:55;13.98;;;8.90;;
33826;SDS011;20128;45.582;5.298;2022-07-24T04:50:21;10.60;;;7.38;;
33826;SDS011;20128;45.582;5.298;2022-07-24T04:52:47;11.85;;;8.20;;
33826;SDS011;20128;45.582;5.298;2022-07-24T04:55:13;12.52;;;7.45;;
33826;SDS011;20128;45.582;5.298;2022-07-24T04:57:39;13.45;;;8.25;;
33826;SDS011;20128;45.582;5.298;2022-07-24T05:00:05;11.98;;;7.70;;
33826;SDS011;20128;45.582;5.298;2022-07-24T05:02:33;11.13;;;8.38;;
33826;SDS011;20128;45.582;5.298;2022-07-24T05:04:58;10.07;;;8.60;;
33826;SDS011;20128;45.582;5.298;2022-07-24T05:07:24;11.20;;;8.23;;
33826;SDS011;20128;45.582;5.298;2022-07-24T05:09:50;14.70;;;8.85;;
33826;SDS011;20128;45.582;5.298;2022-07-24T05:12:16;13.63;;;8.65;;
33826;SDS011;20128;45.582;5.298;2022-07-24T05:14:41;12.32;;;7.78;;
33826;SDS011;20128;45.582;5.298;2022-07-24T05:17:07;12.50;;;7.43;;
33826;SDS011;20128;45.582;5.298;2022-07-24T05:19:33;13.18;;;8.20;;
33826;SDS011;20128;45.582;5.298;2022-07-24T05:21:59;12.68;;;9.30;;
33826;SDS011;20128;45.582;5.298;2022-07-24T05:24:25;16.00;;;9.10;;
33826;SDS011;20128;45.582;5.298;2022-07-24T05:26:51;13.35;;;8.95;;
33826;SDS011;20128;45.582;5.298;2022-07-24T05:29:17;11.35;;;7.80;;
33826;SDS011;20128;45.582;5.298;2022-07-24T05:31:43;10.63;;;8.48;;
33826;SDS011;20128;45.582;5.298;2022-07-24T05:34:09;17.38;;;7.82;;
33826;SDS011;20128;45.582;5.298;2022-07-24T05:36:35;11.63;;;9.13;;
33826;SDS011;20128;45.582;5.298;2022-07-24T05:39:01;13.77;;;9.15;;
33826;SDS011;20128;45.582;5.298;2022-07-24T05:41:27;12.65;;;8.35;;
33826;SDS011;20128;45.582;5.298;2022-07-24T05:43:52;14.05;;;8.43;;
33826;SDS011;20128;45.582;5.298;2022-07-24T05:46:19;12.25;;;9.65;;
33826;SDS011;20128;45.582;5.298;2022-07-24T05:48:44;13.27;;;9.30;;
33826;SDS011;20128;45.582;5.298;2022-07-24T05:51:10;11.88;;;9.13;;
33826;SDS011;20128;45.582;5.298;2022-07-24T05:53:36;20.20;;;9.07;;
33826;SDS011;20128;45.582;5.298;2022-07-24T05:56:03;14.27;;;10.90;;
33826;SDS011;20128;45.582;5.298;2022-07-24T05:58:29;12.30;;;9.70;;
33826;SDS011;20128;45.582;5.298;2022-07-24T06:00:54;16.08;;;10.45;;
33826;SDS011;20128;45.582;5.298;2022-07-24T06:03:20;14.02;;;9.32;;
33826;SDS011;20128;45.582;5.298;2022-07-24T06:05:46;13.68;;;10.70;;
33826;SDS011;20128;45.582;5.298;2022-07-24T06:08:11;14.48;;;9.73;;
33826;SDS011;20128;45.582;5.298;2022-07-24T06:10:37;13.07;;;9.00;;
33826;SDS011;20128;45.582;5.298;2022-07-24T06:13:03;13.90;;;9.32;;
33826;SDS011;20128;45.582;5.298;2022-07-24T06:15:29;14.40;;;8.88;;
33826;SDS011;20128;45.582;5.298;2022-07-24T06:17:55;15.82;;;10.65;;
33826;SDS011;20128;45.582;5.298;2022-07-24T06:20:21;14.80;;;9.43;;
33826;SDS011;20128;45.582;5.298;2022-07-24T06:22:46;14.05;;;8.88;;
33826;SDS011;20128;45.582;5.298;2022-07-24T06:25:12;14.38;;;10.38;;
33826;SDS011;20128;45.582;5.298;2022-07-24T06:27:40;12.68;;;8.40;;
33826;SDS011;20128;45.582;5.298;2022-07-24T06:30:07;14.32;;;9.93;;
33826;SDS011;20128;45.582;5.298;2022-07-24T06:32:37;15.68;;;8.52;;
33826;SDS011;20128;45.582;5.298;2022-07-24T06:35:03;13.38;;;8.98;;
33826;SDS011;20128;45.582;5.298;2022-07-24T06:37:29;13.55;;;9.82;;
33826;SDS011;20128;45.582;5.298;2022-07-24T06:39:54;11.05;;;8.77;;
33826;SDS011;20128;45.582;5.298;2022-07-24T06:42:20;17.95;;;9.88;;
33826;SDS011;20128;45.582;5.298;2022-07-24T06:44:46;13.13;;;9.00;;
33826;SDS011;20128;45.582;5.298;2022-07-24T06:47:11;19.60;;;11.25;;
33826;SDS011;20128;45.582;5.298;2022-07-24T06:49:37;14.63;;;9.88;;
33826;SDS011;20128;45.582;5.298;2022-07-24T06:52:03;18.98;;;10.27;;
33826;SDS011;20128;45.582;5.298;2022-07-24T06:54:29;12.02;;;8.55;;
33826;SDS011;20128;45.582;5.298;2022-07-24T06:56:54;16.45;;;9.75;;
33826;SDS011;20128;45.582;5.298;2022-07-24T06:59:20;15.50;;;9.90;;
33826;SDS011;20128;45.582;5.298;2022-07-24T07:01:46;9.88;;;7.88;;
33826;SDS011;20128;45.582;5.298;2022-07-24T07:04:12;13.55;;;9.90;;
33826;SDS011;20128;45.582;5.298;2022-07-24T07:06:37;14.43;;;9.70;;
33826;SDS011;20128;45.582;5.298;2022-07-24T07:09:03;11.73;;;9.35;;
33826;SDS011;20128;45.582;5.298;2022-07-24T07:11:28;10.95;;;9.48;;
33826;SDS011;20128;45.582;5.298;2022-07-24T07:13:54;14.13;;;9.55;;
33826;SDS011;20128;45.582;5.298;2022-07-24T07:16:20;12.02;;;9.95;;
33826;SDS011;20128;45.582;5.298;2022-07-24T07:18:45;11.00;;;9.30;;
33826;SDS011;20128;45.582;5.298;2022-07-24T07:21:11;13.35;;;10.20;;
33826;SDS011;20128;45.582;5.298;2022-07-24T07:23:37;14.57;;;10.05;;
33826;SDS011;20128;45.582;5.298;2022-07-24T07:26:02;15.20;;;9.90;;
33826;SDS011;20128;45.582;5.298;2022-07-24T07:28:28;12.88;;;9.93;;
33826;SDS011;20128;45.582;5.298;2022-07-24T07:30:54;13.02;;;9.35;;
33826;SDS011;20128;45.582;5.298;2022-07-24T07:33:19;14.30;;;9.48;;
33826;SDS011;20128;45.582;5.298;2022-07-24T07:35:45;13.38;;;8.93;;
33826;SDS011;20128;45.582;5.298;2022-07-24T07:38:11;13.80;;;8.25;;
33826;SDS011;20128;45.582;5.298;2022-07-24T07:40:36;16.77;;;9.07;;
33826;SDS011;20128;45.582;5.298;2022-07-24T07:43:02;12.00;;;8.68;;
33826;SDS011;20128;45.582;5.298;2022-07-24T07:45:28;22.67;;;11.35;;
33826;SDS011;20128;45.582;5.298;2022-07-24T07:47:53;12.88;;;9.40;;
33826;SDS011;20128;45.582;5.298;2022-07-24T07:50:19;13.70;;;9.98;;
33826;SDS011;20128;45.582;5.298;2022-07-24T07:52:45;10.85;;;8.77;;
33826;SDS011;20128;45.582;5.298;2022-07-24T07:55:10;14.13;;;9.90;;
33826;SDS011;20128;45.582;5.298;2022-07-24T07:57:36;13.45;;;9.93;;
33826;SDS011;20128;45.582;5.298;2022-07-24T08:00:03;13.00;;;9.93;;
33826;SDS011;20128;45.582;5.298;2022-07-24T08:02:29;12.63;;;9.30;;
33826;SDS011;20128;45.582;5.298;2022-07-24T08:04:54;20.92;;;9.43;;
33826;SDS011;20128;45.582;5.298;2022-07-24T08:07:20;15.38;;;9.57;;
33826;SDS011;20128;45.582;5.298;2022-07-24T08:09:46;14.43;;;8.70;;
33826;SDS011;20128;45.582;5.298;2022-07-24T08:12:11;13.30;;;8.43;;
33826;SDS011;20128;45.582;5.298;2022-07-24T08:14:37;12.80;;;9.13;;
33826;SDS011;20128;45.582;5.298;2022-07-24T08:17:03;12.52;;;8.63;;
33826;SDS011;20128;45.582;5.298;2022-07-24T08:19:28;11.98;;;8.77;;
33826;SDS011;20128;45.582;5.298;2022-07-24T08:21:54;14.02;;;8.85;;
33826;SDS011;20128;45.582;5.298;2022-07-24T08:24:20;12.48;;;8.93;;
33826;SDS011;20128;45.582;5.298;2022-07-24T08:26:49;13.30;;;9.18;;
33826;SDS011;20128;45.582;5.298;2022-07-24T08:29:15;12.77;;;8.88;;
33826;SDS011;20128;45.582;5.298;2022-07-24T08:31:41;13.13;;;9.38;;
33826;SDS011;20128;45.582;5.298;2022-07-24T08:34:07;15.13;;;10.20;;
33826;SDS011;20128;45.582;5.298;2022-07-24T08:36:34;11.68;;;9.23;;
33826;SDS011;20128;45.582;5.298;2022-07-24T08:39:00;13.48;;;9.00;;
33826;SDS011;20128;45.582;5.298;2022-07-24T08:41:26;14.35;;;9.40;;
33826;SDS011;20128;45.582;5.298;2022-07-24T08:43:58;13.35;;;9.27;;
33826;SDS011;20128;45.582;5.298;2022-07-24T08:46:24;13.38;;;9.93;;
33826;SDS011;20128;45.582;5.298;2022-07-24T08:48:52;14.07;;;10.00;;
33826;SDS011;20128;45.582;5.298;2022-07-24T08:51:18;16.60;;;9.25;;
33826;SDS011;20128;45.582;5.298;2022-07-24T08:53:45;15.18;;;8.98;;
33826;SDS011;20128;45.582;5.298;2022-07-24T08:56:12;19.40;;;9.63;;
33826;SDS011;20128;45.582;5.298;2022-07-24T08:58:38;12.88;;;9.32;;
33826;SDS011;20128;45.582;5.298;2022-07-24T09:01:05;12.38;;;9.05;;
33826;SDS011;20128;45.582;5.298;2022-07-24T09:03:44;13.25;;;8.75;;
33826;SDS011;20128;45.582;5.298;2022-07-24T09:06:11;15.07;;;8.70;;
33826;SDS011;20128;45.582;5.298;2022-07-24T09:08:39;11.25;;;8.10;;
33826;SDS011;20128;45.582;5.298;2022-07-24T09:11:21;13.80;;;9.02;;
33826;SDS011;20128;45.582;5.298;2022-07-24T09:13:47;12.13;;;9.05;;
33826;SDS011;20128;45.582;5.298;2022-07-24T09:16:35;12.65;;;9.02;;
33826;SDS011;20128;45.582;5.298;2022-07-24T09:19:08;13.52;;;9.27;;
33826;SDS011;20128;45.582;5.298;2022-07-24T09:21:35;10.40;;;8.52;;
33826;SDS011;20128;45.582;5.298;2022-07-24T09:24:16;13.20;;;8.75;;
33826;SDS011;20128;45.582;5.298;2022-07-24T09:26:44;16.38;;;8.85;;
33826;SDS011;20128;45.582;5.298;2022-07-24T09:29:13;13.98;;;9.00;;
33826;SDS011;20128;45.582;5.298;2022-07-24T09:31:51;12.52;;;8.65;;
33826;SDS011;20128;45.582;5.298;2022-07-24T09:34:28;14.43;;;9.30;;
33826;SDS011;20128;45.582;5.298;2022-07-24T09:39:22;12.70;;;9.20;;
33826;SDS011;20128;45.582;5.298;2022-07-24T09:41:50;12.93;;;8.13;;
33826;SDS011;20128;45.582;5.298;2022-07-24T09:44:17;11.65;;;8.68;;
33826;SDS011;20128;45.582;5.298;2022-07-24T09:46:47;14.20;;;9.00;;
33826;SDS011;20128;45.582;5.298;2022-07-24T09:49:19;12.32;;;9.18;;
33826;SDS011;20128;45.582;5.298;2022-07-24T09:51:45;13.88;;;8.93;;
33826;SDS011;20128;45.582;5.298;2022-07-24T09:54:36;13.40;;;8.15;;
33826;SDS011;20128;45.582;5.298;2022-07-24T10:00:00;11.63;;;8.25;;
33826;SDS011;20128;45.582;5.298;2022-07-24T10:02:32;12.30;;;8.43;;
33826;SDS011;20128;45.582;5.298;2022-07-24T10:04:59;12.15;;;8.55;;
33826;SDS011;20128;45.582;5.298;2022-07-24T10:07:26;11.95;;;7.55;;
33826;SDS011;20128;45.582;5.298;2022-07-24T10:09:55;10.15;;;7.45;;
33826;SDS011;20128;45.582;5.298;2022-07-24T10:12:26;10.02;;;7.60;;
33826;SDS011;20128;45.582;5.298;2022-07-24T10:14:55;13.52;;;7.82;;
33826;SDS011;20128;45.582;5.298;2022-07-24T10:17:22;15.02;;;8.45;;
33826;SDS011;20128;45.582;5.298;2022-07-24T10:20:11;12.95;;;8.40;;
33826;SDS011;20128;45.582;5.298;2022-07-24T10:23:02;14.70;;;8.95;;
33826;SDS011;20128;45.582;5.298;2022-07-24T10:25:29;11.93;;;8.68;;
33826;SDS011;20128;45.582;5.298;2022-07-24T10:28:07;11.32;;;8.02;;
33826;SDS011;20128;45.582;5.298;2022-07-24T10:30:37;13.20;;;8.60;;
33826;SDS011;20128;45.582;5.298;2022-07-24T10:33:04;12.73;;;8.38;;
33826;SDS011;20128;45.582;5.298;2022-07-24T10:35:31;13.15;;;8.50;;
33826;SDS011;20128;45.582;5.298;2022-07-24T10:38:14;12.77;;;8.10;;
33826;SDS011;20128;45.582;5.298;2022-07-24T10:40:50;12.48;;;7.72;;
33826;SDS011;20128;45.582;5.298;2022-07-24T10:43:20;12.50;;;8.38;;
33826;SDS011;20128;45.582;5.298;2022-07-24T10:56:18;10.48;;;8.27;;
33826;SDS011;20128;45.582;5.298;2022-07-24T11:03:53;10.68;;;7.63;;
33826;SDS011;20128;45.582;5.298;2022-07-24T11:06:18;13.75;;;8.38;;
33826;SDS011;20128;45.582;5.298;2022-07-24T11:09:02;11.77;;;7.57;;
33826;SDS011;20128;45.582;5.298;2022-07-24T11:11:28;15.60;;;8.80;;
33826;SDS011;20128;45.582;5.298;2022-07-24T11:13:54;9.88;;;7.00;;
33826;SDS011;20128;45.582;5.298;2022-07-24T11:16:28;9.90;;;7.55;;
33826;SDS011;20128;45.582;5.298;2022-07-24T11:26:52;13.20;;;7.93;;
33826;SDS011;20128;45.582;5.298;2022-07-24T11:29:31;16.55;;;8.02;;
33826;SDS011;20128;45.582;5.298;2022-07-24T11:32:10;11.52;;;7.88;;
33826;SDS011;20128;45.582;5.298;2022-07-24T11:34:46;11.65;;;7.13;;
33826;SDS011;20128;45.582;5.298;2022-07-24T11:37:16;10.25;;;8.20;;
33826;SDS011;20128;45.582;5.298;2022-07-24T11:39:42;11.68;;;6.97;;
33826;SDS011;20128;45.582;5.298;2022-07-24T11:42:11;12.93;;;7.72;;
33826;SDS011;20128;45.582;5.298;2022-07-24T11:44:45;7.72;;;6.93;;
33826;SDS011;20128;45.582;5.298;2022-07-24T11:47:19;9.48;;;7.22;;
33826;SDS011;20128;45.582;5.298;2022-07-24T11:49:52;9.50;;;7.25;;
33826;SDS011;20128;45.582;5.298;2022-07-24T11:52:24;13.70;;;7.45;;
33826;SDS011;20128;45.582;5.298;2022-07-24T11:54:53;9.18;;;7.68;;
33826;SDS011;20128;45.582;5.298;2022-07-24T11:57:26;10.73;;;7.63;;
33826;SDS011;20128;45.582;5.298;2022-07-24T11:59:54;8.50;;;7.55;;
33826;SDS011;20128;45.582;5.298;2022-07-24T12:02:20;8.80;;;7.10;;
33826;SDS011;20128;45.582;5.298;2022-07-24T12:04:47;9.02;;;7.15;;
33826;SDS011;20128;45.582;5.298;2022-07-24T12:07:15;10.05;;;7.43;;
33826;SDS011;20128;45.582;5.298;2022-07-24T12:12:17;9.75;;;6.47;;
33826;SDS011;20128;45.582;5.298;2022-07-24T12:14:46;9.70;;;7.38;;
33826;SDS011;20128;45.582;5.298;2022-07-24T12:17:15;7.85;;;7.05;;
33826;SDS011;20128;45.582;5.298;2022-07-24T12:19:49;9.95;;;6.97;;
33826;SDS011;20128;45.582;5.298;2022-07-24T12:22:16;7.55;;;6.70;;
33826;SDS011;20128;45.582;5.298;2022-07-24T12:24:43;8.45;;;6.63;;
33826;SDS011;20128;45.582;5.298;2022-07-24T12:27:09;8.35;;;6.65;;
33826;SDS011;20128;45.582;5.298;2022-07-24T12:29:40;10.32;;;6.68;;
33826;SDS011;20128;45.582;5.298;2022-07-24T12:34:41;8.60;;;6.40;;
33826;SDS011;20128;45.582;5.298;2022-07-24T12:37:20;8.20;;;6.22;;
33826;SDS011;20128;45.582;5.298;2022-07-24T12:39:47;9.45;;;6.85;;
33826;SDS011;20128;45.582;5.298;2022-07-24T12:42:17;7.95;;;6.05;;
33826;SDS011;20128;45.582;5.298;2022-07-24T12:44:44;8.68;;;5.72;;
33826;SDS011;20128;45.582;5.298;2022-07-24T12:47:13;7.85;;;5.95;;
33826;SDS011;20128;45.582;5.298;2022-07-24T12:49:43;10.75;;;6.00;;
33826;SDS011;20128;45.582;5.298;2022-07-24T12:52:21;8.48;;;6.13;;
33826;SDS011;20128;45.582;5.298;2022-07-24T12:54:53;8.45;;;5.80;;
33826;SDS011;20128;45.582;5.298;2022-07-24T12:57:21;7.25;;;6.55;;
33826;SDS011;20128;45.582;5.298;2022-07-24T12:59:48;9.63;;;5.72;;
33826;SDS011;20128;45.582;5.298;2022-07-24T13:02:21;7.78;;;5.60;;
33826;SDS011;20128;45.582;5.298;2022-07-24T13:04:50;7.50;;;6.05;;
33826;SDS011;20128;45.582;5.298;2022-07-24T13:07:21;8.30;;;6.32;;
33826;SDS011;20128;45.582;5.298;2022-07-24T13:09:48;7.85;;;5.55;;
33826;SDS011;20128;45.582;5.298;2022-07-24T13:12:15;8.50;;;5.88;;
33826;SDS011;20128;45.582;5.298;2022-07-24T13:14:41;10.82;;;5.65;;
33826;SDS011;20128;45.582;5.298;2022-07-24T13:19:37;6.82;;;5.47;;
33826;SDS011;20128;45.582;5.298;2022-07-24T13:22:07;7.15;;;5.80;;
33826;SDS011;20128;45.582;5.298;2022-07-24T13:24:34;6.45;;;5.22;;
33826;SDS011;20128;45.582;5.298;2022-07-24T13:27:02;7.85;;;5.75;;
33826;SDS011;20128;45.582;5.298;2022-07-24T13:29:29;6.85;;;5.38;;
33826;SDS011;20128;45.582;5.298;2022-07-24T13:31:55;6.25;;;5.47;;
33826;SDS011;20128;45.582;5.298;2022-07-24T13:34:20;10.27;;;5.35;;
33826;SDS011;20128;45.582;5.298;2022-07-24T13:36:46;7.65;;;5.85;;
33826;SDS011;20128;45.582;5.298;2022-07-24T13:39:12;7.78;;;5.55;;
33826;SDS011;20128;45.582;5.298;2022-07-24T13:41:38;6.00;;;5.28;;
33826;SDS011;20128;45.582;5.298;2022-07-24T13:44:04;13.95;;;5.28;;
33826;SDS011;20128;45.582;5.298;2022-07-24T13:46:30;7.75;;;5.15;;
33826;SDS011;20128;45.582;5.298;2022-07-24T13:48:58;6.93;;;5.80;;
33826;SDS011;20128;45.582;5.298;2022-07-24T13:51:25;8.35;;;5.45;;
33826;SDS011;20128;45.582;5.298;2022-07-24T13:53:51;6.65;;;5.20;;
33826;SDS011;20128;45.582;5.298;2022-07-24T13:56:17;6.07;;;4.85;;
33826;SDS011;20128;45.582;5.298;2022-07-24T13:58:43;7.63;;;5.15;;
33826;SDS011;20128;45.582;5.298;2022-07-24T14:01:10;8.10;;;4.80;;
33826;SDS011;20128;45.582;5.298;2022-07-24T14:03:37;5.63;;;4.60;;
33826;SDS011;20128;45.582;5.298;2022-07-24T14:06:06;6.70;;;5.13;;
33826;SDS011;20128;45.582;5.298;2022-07-24T14:08:34;6.72;;;4.68;;
33826;SDS011;20128;45.582;5.298;2022-07-24T14:11:00;6.40;;;4.50;;
33826;SDS011;20128;45.582;5.298;2022-07-24T14:13:26;8.68;;;4.50;;
33826;SDS011;20128;45.582;5.298;2022-07-24T14:15:52;6.85;;;4.95;;
33826;SDS011;20128;45.582;5.298;2022-07-24T14:18:17;7.22;;;4.78;;
33826;SDS011;20128;45.582;5.298;2022-07-24T14:20:43;4.57;;;4.10;;
33826;SDS011;20128;45.582;5.298;2022-07-24T14:23:09;8.68;;;4.65;;
33826;SDS011;20128;45.582;5.298;2022-07-24T14:25:34;8.23;;;4.35;;
33826;SDS011;20128;45.582;5.298;2022-07-24T14:28:00;6.28;;;4.72;;
33826;SDS011;20128;45.582;5.298;2022-07-24T14:30:26;5.95;;;4.13;;
33826;SDS011;20128;45.582;5.298;2022-07-24T14:32:52;6.75;;;4.22;;
33826;SDS011;20128;45.582;5.298;2022-07-24T14:35:17;14.10;;;5.75;;
33826;SDS011;20128;45.582;5.298;2022-07-24T14:37:43;7.72;;;4.75;;
33826;SDS011;20128;45.582;5.298;2022-07-24T14:40:09;6.63;;;4.80;;
33826;SDS011;20128;45.582;5.298;2022-07-24T14:42:35;6.05;;;5.45;;
33826;SDS011;20128;45.582;5.298;2022-07-24T14:45:02;6.50;;;4.97;;
33826;SDS011;20128;45.582;5.298;2022-07-24T14:47:29;7.22;;;4.88;;
33826;SDS011;20128;45.582;5.298;2022-07-24T14:49:54;6.97;;;5.32;;
33826;SDS011;20128;45.582;5.298;2022-07-24T14:52:20;5.47;;;4.97;;
33826;SDS011;20128;45.582;5.298;2022-07-24T14:54:47;7.30;;;5.25;;
33826;SDS011;20128;45.582;5.298;2022-07-24T14:57:14;7.72;;;5.20;;
33826;SDS011;20128;45.582;5.298;2022-07-24T14:59:40;7.07;;;5.20;;
33826;SDS011;20128;45.582;5.298;2022-07-24T15:02:06;6.70;;;5.47;;
33826;SDS011;20128;45.582;5.298;2022-07-24T15:04:33;5.80;;;4.55;;
33826;SDS011;20128;45.582;5.298;2022-07-24T15:06:59;7.43;;;5.10;;
33826;SDS011;20128;45.582;5.298;2022-07-24T15:09:24;5.35;;;4.85;;
33826;SDS011;20128;45.582;5.298;2022-07-24T15:11:50;7.65;;;5.72;;
33826;SDS011;20128;45.582;5.298;2022-07-24T15:14:19;9.10;;;4.75;;